Time;durP1;ratioP1;P1;durP2;ratioP2;P2;SDS_P1;SDS_P2;PMS_P1;PMS_P2;Temp;Humidity;BMP_temperature;BMP_pressure;BME280_temperature;BME280_humidity;BME280_pressure;Samples;Min_cycle;Max_cycle;Signal;HPM_P1;HPM_P2
2024/01/24 00:08:50;;;;;;;1.95;1.10;;;;;;;20.01;45.18;97430.53;20798342;28;20052;-73
2024/01/24 00:19:10;;;;;;;2.58;0.98;;;;;;;19.96;45.19;97400.94;20777711;28;20054;-73
2024/01/24 00:29:30;;;;;;;1.58;0.90;;;;;;;19.94;45.18;97371.50;20756857;28;20050;-73
2024/01/24 00:39:49;;;;;;;1.60;1.05;;;;;;;19.93;44.99;97342.06;20757473;28;20399;-73
2024/01/24 00:50:09;;;;;;;2.50;1.15;;;;;;;19.88;44.83;97315.97;20776019;28;20049;-73
2024/01/24 01:00:29;;;;;;;1.92;0.90;;;;;;;19.82;44.92;97306.44;20768407;28;20140;-73
2024/01/24 01:10:48;;;;;;;1.30;0.85;;;;;;;19.82;44.74;97295.63;20813991;28;20064;-73
2024/01/24 01:21:07;;;;;;;1.17;0.85;;;;;;;19.82;44.88;97286.72;20771311;28;20057;-73
2024/01/24 01:31:27;;;;;;;2.40;0.80;;;;;;;19.77;44.39;97257.09;20794506;28;20054;-73
2024/01/24 01:41:48;;;;;;;2.28;0.82;;;;;;;19.74;44.78;97235.00;20767582;28;20439;-72
2024/01/24 01:52:07;;;;;;;1.80;0.95;;;;;;;19.69;44.60;97223.50;20726560;28;20042;-73
2024/01/24 02:02:26;;;;;;;1.58;0.93;;;;;;;19.67;44.64;97185.97;20798114;28;20050;-73
2024/01/24 02:12:46;;;;;;;1.27;0.80;;;;;;;19.62;44.57;97155.59;20774141;28;20050;-73
2024/01/24 02:23:09;;;;;;;1.45;0.75;;;;;;;19.60;44.53;97122.69;20805893;28;20479;-73
2024/01/24 02:33:29;;;;;;;1.65;0.80;;;;;;;19.58;44.33;97092.47;20722117;28;20050;-73
2024/01/24 02:43:48;;;;;;;0.90;0.52;;;;;;;19.54;44.53;97103.94;20809683;28;20108;-73
2024/01/24 02:54:07;;;;;;;1.08;0.80;;;;;;;19.54;44.55;97085.03;20765938;28;20053;-73
2024/01/24 03:04:27;;;;;;;0.93;0.90;;;;;;;19.47;44.43;97059.59;20786037;28;20463;-73
2024/01/24 03:14:46;;;;;;;0.85;0.60;;;;;;;19.46;44.58;97042.56;20738651;28;20050;-73
2024/01/24 03:25:06;;;;;;;1.60;0.80;;;;;;;19.40;44.31;97035.72;20799161;28;20411;-75
2024/01/24 03:35:26;;;;;;;1.17;0.80;;;;;;;19.38;44.39;97008.22;20737051;28;20108;-75
2024/01/24 03:45:45;;;;;;;0.73;0.63;;;;;;;19.37;44.33;96985.03;20761581;28;20045;-75
2024/01/24 03:56:06;;;;;;;1.58;0.70;;;;;;;19.31;44.48;96962.78;20813061;28;20085;-75
2024/01/24 04:06:25;;;;;;;1.45;0.70;;;;;;;19.28;44.43;96928.31;20754661;28;20053;-75
2024/01/24 04:16:44;;;;;;;0.88;0.60;;;;;;;19.25;44.22;96911.94;20823028;28;20691;-75
2024/01/24 04:27:04;;;;;;;0.70;0.60;;;;;;;19.21;44.25;96902.88;20806529;28;20078;-75
2024/01/24 04:37:23;;;;;;;0.45;0.40;;;;;;;19.20;44.28;96906.72;20786334;28;20056;-75
2024/01/24 04:47:45;;;;;;;0.73;0.57;;;;;;;19.20;44.33;96898.63;20772164;28;20053;-76
2024/01/24 04:58:05;;;;;;;0.80;0.47;;;;;;;19.16;44.27;96879.53;20736177;28;20062;-76
2024/01/24 05:08:24;;;;;;;0.63;0.50;;;;;;;19.13;44.32;96888.28;20803614;28;20285;-75
2024/01/24 05:18:44;;;;;;;1.75;0.30;;;;;;;19.12;44.32;96882.09;20794522;28;20218;-76
2024/01/24 05:29:06;;;;;;;0.95;0.65;;;;;;;19.09;44.36;96892.72;20798543;28;20046;-76
2024/01/24 05:39:25;;;;;;;0.55;0.55;;;;;;;19.09;44.32;96871.13;20745419;28;20074;-75
2024/01/24 05:49:45;;;;;;;1.33;0.70;;;;;;;19.16;44.46;96871.44;20742337;28;20042;-75
2024/01/24 06:00:08;;;;;;;0.75;0.50;;;;;;;19.29;44.58;96858.88;20769386;28;20057;-75
2024/01/24 06:10:27;;;;;;;0.50;0.40;;;;;;;19.35;44.67;96855.69;20716840;28;20318;-75
2024/01/24 06:20:47;;;;;;;0.77;0.65;;;;;;;19.43;44.74;96823.56;20795906;28;20077;-75
2024/01/24 06:31:06;;;;;;;2.30;0.47;;;;;;;19.51;44.88;96831.66;20788754;28;20126;-75
2024/01/24 06:41:26;;;;;;;0.90;0.52;;;;;;;19.54;44.53;96812.09;20739843;28;20079;-75
2024/01/24 06:51:46;;;;;;;2.15;0.50;;;;;;;19.60;44.36;96810.00;20743571;28;20473;-75
2024/01/24 07:02:06;;;;;;;2.50;0.47;;;;;;;19.67;44.12;96814.91;20788717;28;20407;-75
2024/01/24 07:12:26;;;;;;;0.60;0.30;;;;;;;19.73;44.16;96792.78;20758054;28;20077;-74
2024/01/24 07:22:46;;;;;;;1.05;0.50;;;;;;;19.82;44.12;96805.50;20761303;28;20073;-75
2024/01/24 07:33:05;;;;;;;0.85;0.50;;;;;;;19.86;44.11;96823.44;20780268;28;20398;-75
2024/01/24 07:43:25;;;;;;;1.80;0.50;;;;;;;19.93;43.88;96841.84;20756563;28;20057;-75
2024/01/24 07:53:44;;;;;;;0.40;0.40;;;;;;;19.95;43.58;96842.31;20714082;28;20060;-75
2024/01/24 08:04:04;;;;;;;0.60;0.40;;;;;;;20.03;43.48;96814.47;20750411;28;20057;-73
2024/01/24 08:14:24;;;;;;;0.70;0.50;;;;;;;20.10;43.24;96805.81;20769192;28;20461;-72
2024/01/24 08:24:44;;;;;;;0.93;0.50;;;;;;;20.19;43.07;96798.44;20753810;28;20045;-73
2024/01/24 08:35:04;;;;;;;0.93;0.40;;;;;;;20.25;42.92;96782.81;20716257;28;20097;-73
2024/01/24 08:45:23;;;;;;;0.60;0.30;;;;;;;20.30;42.98;96772.56;20764897;28;20046;-73
2024/01/24 08:55:43;;;;;;;1.83;0.40;;;;;;;20.33;43.14;96766.53;20740431;28;20065;-73
2024/01/24 09:06:04;;;;;;;0.63;0.40;;;;;;;20.37;43.22;96755.06;20720009;28;20054;-73
2024/01/24 09:16:24;;;;;;;2.30;0.50;;;;;;;20.45;43.25;96762.31;20765998;28;20057;-75
2024/01/24 09:26:43;;;;;;;2.72;0.50;;;;;;;20.54;43.21;96771.13;20742797;28;20050;-76
2024/01/24 09:37:03;;;;;;;0.30;0.30;;;;;;;20.54;43.07;96763.00;20764853;28;20053;-75
2024/01/24 09:47:24;;;;;;;0.73;0.30;;;;;;;20.61;42.99;96743.56;20736950;28;20050;-75
2024/01/24 09:57:44;;;;;;;0.40;0.40;;;;;;;20.69;43.26;96746.19;20732471;28;20061;-75
2024/01/24 10:08:04;;;;;;;0.38;0.30;;;;;;;20.71;43.39;96741.22;20768544;28;20368;-76
2024/01/24 10:18:24;;;;;;;5.47;0.43;;;;;;;20.77;43.17;96713.97;20762239;28;20108;-74
2024/01/24 10:28:44;;;;;;;0.50;0.22;;;;;;;20.83;42.85;96709.91;20772849;28;20045;-75
2024/01/24 10:39:04;;;;;;;0.40;0.40;;;;;;;20.85;42.63;96700.31;20793304;28;20522;-75
2024/01/24 10:49:25;;;;;;;0.30;0.30;;;;;;;20.92;42.37;96699.78;20758903;28;20096;-74
2024/01/24 10:59:45;;;;;;;1.20;0.30;;;;;;;20.89;42.01;96693.09;20778967;28;20049;-75
2024/01/24 11:10:43;;;;;;;1.85;0.50;;;;;;;20.76;39.05;96701.53;20777972;28;20056;-75
2024/01/24 11:21:03;;;;;;;0.85;0.55;;;;;;;20.60;38.95;96682.44;20632165;28;20252;-74
2024/01/24 11:31:39;;;;;;;1.27;0.60;;;;;;;20.41;39.25;96689.13;20776668;28;20050;-75
2024/01/24 11:42:24;;;;;;;0.63;0.50;;;;;;;20.67;39.34;96709.75;20775490;28;20062;-75
2024/01/24 11:52:44;;;;;;;2.00;1.15;;;;;;;20.76;39.47;96724.00;20744922;28;20061;-75
2024/01/24 12:03:05;;;;;;;5.22;1.48;;;;;;;20.76;41.51;96712.38;20779900;28;20635;-76
2024/01/24 12:13:27;;;;;;;3.47;1.10;;;;;;;20.79;43.19;96726.03;20742579;28;20046;-76
2024/01/24 12:23:50;;;;;;;17.35;6.50;;;;;;;20.85;44.03;96707.66;20709313;28;20127;-76
2024/01/24 12:34:09;;;;;;;3.05;1.50;;;;;;;20.52;42.03;96724.66;20767736;28;20109;-76
2024/01/24 12:44:29;;;;;;;4.75;1.77;;;;;;;20.79;44.34;96709.78;20741543;28;20792;-74
2024/01/24 12:54:49;;;;;;;2.53;0.90;;;;;;;20.76;39.41;96707.75;20739414;28;20065;-74
2024/01/24 13:05:08;;;;;;;0.60;0.50;;;;;;;20.52;37.16;96719.25;20766573;28;20054;-74
2024/01/24 13:15:32;;;;;;;2.72;0.57;;;;;;;20.57;38.65;96731.81;20745807;28;20061;-73
2024/01/24 13:25:52;;;;;;;2.22;0.60;;;;;;;20.62;39.34;96748.66;20756201;28;20046;-73
2024/01/24 13:36:11;;;;;;;5.20;0.80;;;;;;;20.62;36.91;96758.66;20758483;28;20053;-73
2024/01/24 13:46:31;;;;;;;13.15;1.15;;;;;;;20.68;38.42;96774.41;20748474;28;20046;-73
2024/01/24 13:56:51;;;;;;;6.97;1.08;;;;;;;20.73;39.51;96766.03;20735406;28;20042;-73
2024/01/24 14:07:10;;;;;;;1.73;0.88;;;;;;;20.76;40.29;96769.22;20757922;28;20132;-73
2024/01/24 14:17:30;;;;;;;2.78;1.13;;;;;;;20.78;41.50;96805.69;20758329;28;20092;-72
2024/01/24 14:27:50;;;;;;;3.15;0.90;;;;;;;20.85;42.68;96814.03;20764350;28;20053;-73
2024/01/24 14:38:09;;;;;;;1.55;0.98;;;;;;;20.88;43.52;96834.25;20726408;28;20064;-72
2024/01/24 14:48:28;;;;;;;3.35;0.93;;;;;;;20.91;44.42;96855.25;20731856;28;20108;-73
2024/01/24 14:58:48;;;;;;;2.30;0.93;;;;;;;20.98;44.18;96866.34;20753817;28;20530;-73
2024/01/24 15:09:08;;;;;;;2.67;1.08;;;;;;;20.92;43.98;96886.63;20763999;28;20046;-72
2024/01/24 15:19:28;;;;;;;3.92;0.80;;;;;;;20.93;44.26;96878.19;20743038;28;20096;-72
2024/01/24 15:29:48;;;;;;;21.55;1.45;;;;;;;20.94;44.78;96919.59;20759669;28;20058;-73
2024/01/24 15:40:10;;;;;;;3.22;0.85;;;;;;;20.94;45.29;96944.75;20730752;28;20499;-73
2024/01/24 15:50:29;;;;;;;2.22;0.90;;;;;;;20.94;45.52;96962.94;20748392;28;20124;-73
2024/01/24 16:00:49;;;;;;;2.20;1.30;;;;;;;20.98;45.71;96973.91;20756537;28;20088;-73
2024/01/24 16:11:08;;;;;;;2.45;0.90;;;;;;;20.96;45.95;96981.56;20755634;28;20050;-72
2024/01/24 16:21:28;;;;;;;3.90;0.95;;;;;;;20.97;46.11;97029.16;20755029;28;20065;-72
2024/01/24 16:31:48;;;;;;;2.30;1.13;;;;;;;21.00;46.16;97026.59;20746059;28;20471;-72
2024/01/24 16:42:07;;;;;;;2.03;0.98;;;;;;;21.03;45.90;97031.38;20752679;28;20124;-73
2024/01/24 16:52:26;;;;;;;4.55;1.50;;;;;;;21.06;45.24;97035.34;20778680;28;20056;-74
2024/01/24 17:02:46;;;;;;;6.15;1.40;;;;;;;21.06;45.61;97043.47;20770523;28;20487;-73
2024/01/24 17:13:07;;;;;;;4.65;1.20;;;;;;;21.14;46.32;97067.78;20768744;28;20042;-73
2024/01/24 17:23:26;;;;;;;4.78;1.33;;;;;;;21.11;46.40;97082.00;20720051;28;20073;-73
2024/01/24 17:33:45;;;;;;;2.85;1.40;;;;;;;21.14;46.47;97100.28;20722766;28;20073;-73
2024/01/24 17:44:05;;;;;;;4.43;1.63;;;;;;;21.22;46.78;97104.06;20703392;28;20053;-73
2024/01/24 17:54:25;;;;;;;4.13;1.05;;;;;;;21.25;46.71;97097.22;20724527;28;20104;-77
2024/01/24 18:04:45;;;;;;;2.22;1.20;;;;;;;21.27;46.46;97089.56;20697459;28;20045;-78
2024/01/24 18:15:05;;;;;;;3.25;1.30;;;;;;;21.32;46.31;97097.47;20702377;28;20133;-81
2024/01/24 18:35:55;;;;;;;2.53;1.20;;;;;;;21.33;45.92;97104.50;11065917;23;19929;-75
2024/01/24 18:46:16;;;;;;;2.85;1.10;;;;;;;21.32;45.87;97098.28;19349403;28;10000325;-73
2024/01/24 18:56:36;;;;;;;5.38;1.10;;;;;;;21.34;46.71;97114.22;20603430;28;20054;-78
2024/01/24 19:06:56;;;;;;;3.40;1.08;;;;;;;21.40;46.82;97139.22;20584716;28;20580;-75
2024/01/24 19:17:15;;;;;;;6.35;0.95;;;;;;;21.35;47.01;97148.34;20599624;28;20109;-79
2024/01/24 19:27:35;;;;;;;15.50;6.57;;;;;;;21.38;49.15;97155.00;18875650;28;10000965;-79
2024/01/24 19:37:55;;;;;;;20.67;8.23;;;;;;;21.36;50.70;97179.72;20526014;28;20222;-75
2024/01/24 19:48:14;;;;;;;13.88;5.43;;;;;;;21.32;49.46;97167.94;20507175;28;20291;-74
2024/01/24 19:58:35;;;;;;;11.52;4.47;;;;;;;21.28;48.78;97180.56;19553041;28;10001001;-74
2024/01/24 20:08:54;;;;;;;11.63;4.18;;;;;;;21.22;48.39;97179.16;20612354;28;20109;-73
2024/01/24 20:19:14;;;;;;;8.40;3.88;;;;;;;21.20;48.30;97165.13;20626267;28;20047;-78
2024/01/24 20:29:34;;;;;;;9.80;3.40;;;;;;;21.21;48.26;97172.13;20567140;28;20419;-78
2024/01/24 20:39:54;;;;;;;6.05;2.88;;;;;;;21.13;48.38;97163.75;20563134;28;20062;-80
2024/01/24 20:50:14;;;;;;;7.82;2.97;;;;;;;21.13;48.38;97169.16;20598387;28;20170;-81
2024/01/24 21:00:34;;;;;;;8.48;3.03;;;;;;;21.06;48.14;97173.50;20609043;28;20043;-79
2024/01/24 21:10:54;;;;;;;5.57;2.72;;;;;;;21.06;48.06;97170.78;20548578;28;20488;-76
2024/01/24 21:21:13;;;;;;;5.57;2.60;;;;;;;21.03;47.91;97174.13;20560293;28;20065;-72
2024/01/24 21:31:33;;;;;;;6.78;2.80;;;;;;;20.97;47.76;97178.91;20589650;28;20109;-73
2024/01/24 21:41:52;;;;;;;6.95;2.50;;;;;;;20.92;48.15;97193.44;20514080;28;20059;-74
2024/01/24 21:52:13;;;;;;;7.10;2.65;;;;;;;20.89;48.38;97198.72;20565907;28;20368;-72
2024/01/24 22:02:33;;;;;;;5.45;2.22;;;;;;;20.86;48.48;97188.53;20561840;28;20051;-73
2024/01/24 22:12:54;;;;;;;6.15;2.60;;;;;;;20.83;48.57;97208.91;20574678;28;20419;-73
2024/01/24 22:23:14;;;;;;;5.97;2.45;;;;;;;20.80;48.40;97206.88;20547131;28;20061;-73
2024/01/24 22:33:34;;;;;;;4.65;2.10;;;;;;;20.74;48.31;97211.66;20528811;28;20048;-75
2024/01/24 22:43:53;;;;;;;6.53;2.30;;;;;;;20.72;48.39;97223.94;20550963;28;20047;-75
2024/01/24 22:54:13;;;;;;;7.80;2.40;;;;;;;20.68;48.38;97231.91;20530576;28;20055;-75
2024/01/24 23:04:33;;;;;;;5.95;2.63;;;;;;;20.66;48.23;97236.84;20517122;28;20055;-75
2024/01/24 23:14:53;;;;;;;4.55;2.33;;;;;;;20.64;48.15;97239.06;20527991;28;20404;-75
2024/01/24 23:25:12;;;;;;;5.25;1.95;;;;;;;20.58;48.00;97242.22;20536846;28;20055;-75
2024/01/24 23:35:31;;;;;;;4.90;1.83;;;;;;;20.53;48.21;97235.06;20525287;28;20047;-75
2024/01/24 23:45:51;;;;;;;3.97;1.73;;;;;;;20.49;48.04;97234.91;20549110;28;20055;-73
2024/01/24 23:56:12;;;;;;;3.13;1.75;;;;;;;20.45;47.84;97222.34;20563524;28;20055;-72
